Terminal Aerodrome Forecast
Issued by NWS Memphis, TN

Home | Current Version | Previous Version | Text Only | Print | Product List | Glossary On
Versions: 1 2 3 4 5 6 7 8 9 10 11 12 13 14 15 16 17 18 19 20 21 22 23 24 25 26 27 28 29 30 31 32
000
FTUS44 KMEG 171720
TAFMEM
TAF
KMEM 171720Z 1718/1824 17011G17KT P6SM SCT050 BKN250
     FM180300 18016G24KT P6SM BKN040 BKN250
     FM180800 19020G28KT P6SM VCSH BKN025
     FM181700 21020G28KT P6SM -SHRA VCTS BKN015CB OVC040
      TEMPO 1818/1820 2SM +TSRA BKN009CB
     FM182100 32018G26KT P6SM VCSH BKN035=

USA.gov is the U.S. government's official web portal to all federal, state and local government web resources and services.